sensor_id;sensor_type;location;lat;lon;timestamp;P1;durP1;ratioP1;P2;durP2;ratioP2
77586;SDS011;66744;49.716;17.158;2023-07-22T00:02:30;8.23;;;5.70;;
77586;SDS011;66744;49.716;17.158;2023-07-22T00:05:32;8.63;;;4.70;;
77586;SDS011;66744;49.716;17.158;2023-07-22T00:08:34;10.07;;;5.88;;
77586;SDS011;66744;49.716;17.158;2023-07-22T00:11:36;15.80;;;5.85;;
77586;SDS011;66744;49.716;17.158;2023-07-22T00:14:41;15.70;;;5.07;;
77586;SDS011;66744;49.716;17.158;2023-07-22T00:17:42;21.85;;;5.22;;
77586;SDS011;66744;49.716;17.158;2023-07-22T00:20:44;17.73;;;5.93;;
77586;SDS011;66744;49.716;17.158;2023-07-22T00:23:46;18.17;;;7.25;;
77586;SDS011;66744;49.716;17.158;2023-07-22T00:26:55;12.65;;;5.32;;
77586;SDS011;66744;49.716;17.158;2023-07-22T00:30:01;10.30;;;5.15;;
77586;SDS011;66744;49.716;17.158;2023-07-22T00:33:06;16.52;;;6.35;;
77586;SDS011;66744;49.716;17.158;2023-07-22T00:36:08;19.58;;;6.75;;
77586;SDS011;66744;49.716;17.158;2023-07-22T00:39:09;11.68;;;5.38;;
77586;SDS011;66744;49.716;17.158;2023-07-22T00:42:12;12.00;;;6.35;;
77586;SDS011;66744;49.716;17.158;2023-07-22T00:45:13;16.13;;;6.57;;
77586;SDS011;66744;49.716;17.158;2023-07-22T00:48:15;14.25;;;5.63;;
77586;SDS011;66744;49.716;17.158;2023-07-22T00:51:17;24.00;;;6.43;;
77586;SDS011;66744;49.716;17.158;2023-07-22T00:54:20;15.13;;;6.30;;
77586;SDS011;66744;49.716;17.158;2023-07-22T00:57:21;23.33;;;5.75;;
77586;SDS011;66744;49.716;17.158;2023-07-22T01:00:23;11.60;;;5.75;;
77586;SDS011;66744;49.716;17.158;2023-07-22T01:03:25;8.25;;;4.40;;
77586;SDS011;66744;49.716;17.158;2023-07-22T01:06:26;10.77;;;5.43;;
77586;SDS011;66744;49.716;17.158;2023-07-22T01:09:34;13.20;;;6.00;;
77586;SDS011;66744;49.716;17.158;2023-07-22T01:12:39;12.18;;;5.32;;
77586;SDS011;66744;49.716;17.158;2023-07-22T01:15:41;13.05;;;5.88;;
77586;SDS011;66744;49.716;17.158;2023-07-22T01:18:43;20.27;;;6.50;;
77586;SDS011;66744;49.716;17.158;2023-07-22T01:21:45;16.05;;;6.35;;
77586;SDS011;66744;49.716;17.158;2023-07-22T01:24:48;17.48;;;6.30;;
77586;SDS011;66744;49.716;17.158;2023-07-22T01:27:52;11.23;;;5.93;;
77586;SDS011;66744;49.716;17.158;2023-07-22T01:30:54;20.45;;;7.68;;
77586;SDS011;66744;49.716;17.158;2023-07-22T01:33:55;13.88;;;6.30;;
77586;SDS011;66744;49.716;17.158;2023-07-22T01:36:57;13.50;;;6.07;;
77586;SDS011;66744;49.716;17.158;2023-07-22T01:39:58;18.42;;;6.93;;
77586;SDS011;66744;49.716;17.158;2023-07-22T01:43:00;12.88;;;6.47;;
77586;SDS011;66744;49.716;17.158;2023-07-22T01:46:03;15.35;;;5.82;;
77586;SDS011;66744;49.716;17.158;2023-07-22T01:49:06;9.18;;;6.05;;
77586;SDS011;66744;49.716;17.158;2023-07-22T01:52:11;10.88;;;5.13;;
77586;SDS011;66744;49.716;17.158;2023-07-22T01:55:12;14.63;;;5.63;;
77586;SDS011;66744;49.716;17.158;2023-07-22T01:58:16;13.52;;;5.43;;
77586;SDS011;66744;49.716;17.158;2023-07-22T02:01:17;12.95;;;5.00;;
77586;SDS011;66744;49.716;17.158;2023-07-22T02:04:19;10.15;;;6.30;;
77586;SDS011;66744;49.716;17.158;2023-07-22T02:07:21;13.48;;;6.63;;
77586;SDS011;66744;49.716;17.158;2023-07-22T02:10:22;13.70;;;6.60;;
77586;SDS011;66744;49.716;17.158;2023-07-22T02:13:23;7.72;;;5.07;;
77586;SDS011;66744;49.716;17.158;2023-07-22T02:16:25;11.98;;;5.15;;
77586;SDS011;66744;49.716;17.158;2023-07-22T02:19:26;10.23;;;5.50;;
77586;SDS011;66744;49.716;17.158;2023-07-22T02:22:28;6.85;;;4.63;;
77586;SDS011;66744;49.716;17.158;2023-07-22T02:25:29;9.02;;;4.57;;
77586;SDS011;66744;49.716;17.158;2023-07-22T02:28:30;9.13;;;4.80;;
77586;SDS011;66744;49.716;17.158;2023-07-22T02:31:32;11.20;;;5.35;;
77586;SDS011;66744;49.716;17.158;2023-07-22T02:34:33;9.38;;;4.45;;
77586;SDS011;66744;49.716;17.158;2023-07-22T02:37:36;14.32;;;5.68;;
77586;SDS011;66744;49.716;17.158;2023-07-22T02:40:39;8.68;;;4.90;;
77586;SDS011;66744;49.716;17.158;2023-07-22T02:43:43;15.80;;;5.82;;
77586;SDS011;66744;49.716;17.158;2023-07-22T02:46:44;15.48;;;5.13;;
77586;SDS011;66744;49.716;17.158;2023-07-22T02:49:46;13.80;;;5.57;;
77586;SDS011;66744;49.716;17.158;2023-07-22T02:52:48;8.25;;;5.43;;
77586;SDS011;66744;49.716;17.158;2023-07-22T02:55:49;8.55;;;4.53;;
77586;SDS011;66744;49.716;17.158;2023-07-22T02:58:50;12.32;;;4.28;;
77586;SDS011;66744;49.716;17.158;2023-07-22T03:01:52;8.52;;;5.38;;
77586;SDS011;66744;49.716;17.158;2023-07-22T03:04:53;11.95;;;4.85;;
77586;SDS011;66744;49.716;17.158;2023-07-22T03:07:55;10.43;;;5.95;;
77586;SDS011;66744;49.716;17.158;2023-07-22T03:10:57;12.15;;;4.72;;
77586;SDS011;66744;49.716;17.158;2023-07-22T03:13:58;8.20;;;5.20;;
77586;SDS011;66744;49.716;17.158;2023-07-22T03:17:00;7.10;;;4.10;;
77586;SDS011;66744;49.716;17.158;2023-07-22T03:20:02;7.65;;;4.43;;
77586;SDS011;66744;49.716;17.158;2023-07-22T03:23:34;9.93;;;5.05;;
77586;SDS011;66744;49.716;17.158;2023-07-22T03:26:35;12.10;;;4.28;;
77586;SDS011;66744;49.716;17.158;2023-07-22T03:29:37;10.45;;;5.07;;
77586;SDS011;66744;49.716;17.158;2023-07-22T03:32:38;8.63;;;4.15;;
77586;SDS011;66744;49.716;17.158;2023-07-22T03:35:40;8.10;;;6.03;;
77586;SDS011;66744;49.716;17.158;2023-07-22T03:38:41;7.00;;;5.68;;
77586;SDS011;66744;49.716;17.158;2023-07-22T03:41:43;8.70;;;5.72;;
77586;SDS011;66744;49.716;17.158;2023-07-22T03:44:44;8.90;;;6.75;;
77586;SDS011;66744;49.716;17.158;2023-07-22T03:47:46;8.00;;;6.80;;
77586;SDS011;66744;49.716;17.158;2023-07-22T03:50:48;13.68;;;8.57;;
77586;SDS011;66744;49.716;17.158;2023-07-22T03:53:49;9.45;;;8.48;;
77586;SDS011;66744;49.716;17.158;2023-07-22T03:56:51;8.98;;;7.38;;
77586;SDS011;66744;49.716;17.158;2023-07-22T03:59:55;12.10;;;9.38;;
77586;SDS011;66744;49.716;17.158;2023-07-22T04:02:57;12.93;;;7.72;;
77586;SDS011;66744;49.716;17.158;2023-07-22T04:05:58;9.63;;;8.63;;
77586;SDS011;66744;49.716;17.158;2023-07-22T04:09:00;12.27;;;8.88;;
77586;SDS011;66744;49.716;17.158;2023-07-22T04:12:01;10.05;;;8.13;;
77586;SDS011;66744;49.716;17.158;2023-07-22T04:15:02;10.05;;;8.95;;
77586;SDS011;66744;49.716;17.158;2023-07-22T04:18:04;11.88;;;8.63;;
77586;SDS011;66744;49.716;17.158;2023-07-22T04:21:05;9.65;;;8.32;;
77586;SDS011;66744;49.716;17.158;2023-07-22T04:24:07;10.57;;;7.45;;
77586;SDS011;66744;49.716;17.158;2023-07-22T04:27:08;11.05;;;8.10;;
77586;SDS011;66744;49.716;17.158;2023-07-22T04:30:09;10.65;;;8.43;;
77586;SDS011;66744;49.716;17.158;2023-07-22T04:33:11;9.85;;;8.60;;
77586;SDS011;66744;49.716;17.158;2023-07-22T04:36:12;10.70;;;8.32;;
77586;SDS011;66744;49.716;17.158;2023-07-22T04:39:17;8.95;;;8.05;;
77586;SDS011;66744;49.716;17.158;2023-07-22T04:42:21;11.15;;;8.15;;
77586;SDS011;66744;49.716;17.158;2023-07-22T04:45:23;8.80;;;6.65;;
77586;SDS011;66744;49.716;17.158;2023-07-22T04:48:31;12.60;;;8.35;;
77586;SDS011;66744;49.716;17.158;2023-07-22T04:51:32;9.55;;;7.22;;
77586;SDS011;66744;49.716;17.158;2023-07-22T04:54:33;8.25;;;5.90;;
77586;SDS011;66744;49.716;17.158;2023-07-22T04:57:35;7.93;;;5.95;;
77586;SDS011;66744;49.716;17.158;2023-07-22T05:00:39;8.70;;;6.85;;
77586;SDS011;66744;49.716;17.158;2023-07-22T05:03:43;8.07;;;6.60;;
77586;SDS011;66744;49.716;17.158;2023-07-22T05:06:47;7.82;;;6.30;;
77586;SDS011;66744;49.716;17.158;2023-07-22T05:09:48;8.20;;;6.93;;
77586;SDS011;66744;49.716;17.158;2023-07-22T05:12:50;7.13;;;6.35;;
77586;SDS011;66744;49.716;17.158;2023-07-22T05:15:51;10.95;;;7.03;;
77586;SDS011;66744;49.716;17.158;2023-07-22T05:18:53;8.15;;;5.75;;
77586;SDS011;66744;49.716;17.158;2023-07-22T05:21:54;8.43;;;5.75;;
77586;SDS011;66744;49.716;17.158;2023-07-22T05:24:56;7.28;;;5.22;;
77586;SDS011;66744;49.716;17.158;2023-07-22T05:27:57;9.05;;;5.30;;
77586;SDS011;66744;49.716;17.158;2023-07-22T05:30:58;8.05;;;6.90;;
77586;SDS011;66744;49.716;17.158;2023-07-22T05:34:00;9.65;;;6.93;;
77586;SDS011;66744;49.716;17.158;2023-07-22T05:37:01;7.65;;;6.72;;
77586;SDS011;66744;49.716;17.158;2023-07-22T05:40:03;7.60;;;6.72;;
77586;SDS011;66744;49.716;17.158;2023-07-22T05:43:05;8.77;;;6.97;;
77586;SDS011;66744;49.716;17.158;2023-07-22T05:46:10;8.20;;;7.35;;
77586;SDS011;66744;49.716;17.158;2023-07-22T05:49:15;8.95;;;7.47;;
77586;SDS011;66744;49.716;17.158;2023-07-22T05:52:18;8.90;;;7.50;;
77586;SDS011;66744;49.716;17.158;2023-07-22T05:55:19;11.48;;;10.25;;
77586;SDS011;66744;49.716;17.158;2023-07-22T05:58:21;10.68;;;9.57;;
77586;SDS011;66744;49.716;17.158;2023-07-22T06:01:25;11.20;;;8.55;;
77586;SDS011;66744;49.716;17.158;2023-07-22T06:04:28;13.88;;;10.13;;
77586;SDS011;66744;49.716;17.158;2023-07-22T06:07:29;11.52;;;9.88;;
77586;SDS011;66744;49.716;17.158;2023-07-22T06:10:33;11.75;;;10.45;;
77586;SDS011;66744;49.716;17.158;2023-07-22T06:13:35;13.32;;;9.90;;
77586;SDS011;66744;49.716;17.158;2023-07-22T06:16:36;14.32;;;10.43;;
77586;SDS011;66744;49.716;17.158;2023-07-22T06:19:37;9.60;;;8.63;;
77586;SDS011;66744;49.716;17.158;2023-07-22T06:22:39;12.93;;;11.00;;
77586;SDS011;66744;49.716;17.158;2023-07-22T06:25:40;11.60;;;9.48;;
77586;SDS011;66744;49.716;17.158;2023-07-22T06:28:41;10.75;;;9.27;;
77586;SDS011;66744;49.716;17.158;2023-07-22T06:31:43;10.85;;;9.52;;
77586;SDS011;66744;49.716;17.158;2023-07-22T06:34:44;9.40;;;8.23;;
77586;SDS011;66744;49.716;17.158;2023-07-22T06:37:46;11.82;;;10.45;;
77586;SDS011;66744;49.716;17.158;2023-07-22T06:40:47;12.65;;;10.43;;
77586;SDS011;66744;49.716;17.158;2023-07-22T06:43:48;11.00;;;9.10;;
77586;SDS011;66744;49.716;17.158;2023-07-22T06:46:50;9.40;;;8.00;;
77586;SDS011;66744;49.716;17.158;2023-07-22T06:49:51;10.85;;;9.15;;
77586;SDS011;66744;49.716;17.158;2023-07-22T06:52:52;8.88;;;7.47;;
77586;SDS011;66744;49.716;17.158;2023-07-22T06:55:54;9.10;;;8.02;;
77586;SDS011;66744;49.716;17.158;2023-07-22T06:58:56;11.15;;;8.63;;
77586;SDS011;66744;49.716;17.158;2023-07-22T07:01:57;7.53;;;6.82;;
77586;SDS011;66744;49.716;17.158;2023-07-22T07:04:59;9.75;;;8.77;;
77586;SDS011;66744;49.716;17.158;2023-07-22T07:08:01;8.45;;;7.57;;
77586;SDS011;66744;49.716;17.158;2023-07-22T07:11:03;7.45;;;6.75;;
77586;SDS011;66744;49.716;17.158;2023-07-22T07:14:04;7.40;;;6.70;;
77586;SDS011;66744;49.716;17.158;2023-07-22T07:17:06;8.15;;;7.07;;
77586;SDS011;66744;49.716;17.158;2023-07-22T07:20:07;11.93;;;7.63;;
77586;SDS011;66744;49.716;17.158;2023-07-22T07:23:09;9.07;;;5.78;;
77586;SDS011;66744;49.716;17.158;2023-07-22T07:26:10;6.85;;;4.43;;
77586;SDS011;66744;49.716;17.158;2023-07-22T07:29:12;6.00;;;4.35;;
77586;SDS011;66744;49.716;17.158;2023-07-22T07:32:14;5.22;;;3.80;;
77586;SDS011;66744;49.716;17.158;2023-07-22T07:35:15;5.80;;;4.15;;
77586;SDS011;66744;49.716;17.158;2023-07-22T07:38:19;4.20;;;3.55;;
77586;SDS011;66744;49.716;17.158;2023-07-22T07:41:27;5.07;;;3.55;;
77586;SDS011;66744;49.716;17.158;2023-07-22T07:44:29;5.03;;;3.40;;
77586;SDS011;66744;49.716;17.158;2023-07-22T07:51:15;4.38;;;3.30;;
77586;SDS011;66744;49.716;17.158;2023-07-22T07:54:40;3.95;;;3.63;;
77586;SDS011;66744;49.716;17.158;2023-07-22T08:59:50;4.90;;;1.70;;
77586;SDS011;66744;49.716;17.158;2023-07-22T09:03:01;5.47;;;2.22;;
77586;SDS011;66744;49.716;17.158;2023-07-22T09:06:27;3.92;;;1.95;;
77586;SDS011;66744;49.716;17.158;2023-07-22T09:09:57;2.72;;;1.88;;
77586;SDS011;66744;49.716;17.158;2023-07-22T09:13:08;3.03;;;1.70;;
77586;SDS011;66744;49.716;17.158;2023-07-22T09:16:14;4.03;;;1.75;;
77586;SDS011;66744;49.716;17.158;2023-07-22T09:19:17;2.63;;;1.83;;
77586;SDS011;66744;49.716;17.158;2023-07-22T09:22:48;4.50;;;1.70;;
77586;SDS011;66744;49.716;17.158;2023-07-22T09:26:14;3.58;;;1.63;;
77586;SDS011;66744;49.716;17.158;2023-07-22T09:29:34;1.92;;;1.73;;
77586;SDS011;66744;49.716;17.158;2023-07-22T09:33:20;2.13;;;1.40;;
77586;SDS011;66744;49.716;17.158;2023-07-22T09:36:32;2.17;;;1.80;;
77586;SDS011;66744;49.716;17.158;2023-07-22T09:39:48;3.15;;;2.20;;
77586;SDS011;66744;49.716;17.158;2023-07-22T09:43:10;2.17;;;1.75;;
77586;SDS011;66744;49.716;17.158;2023-07-22T09:46:18;2.13;;;1.48;;
77586;SDS011;66744;49.716;17.158;2023-07-22T09:49:22;1.95;;;1.52;;
77586;SDS011;66744;49.716;17.158;2023-07-22T09:52:23;2.38;;;1.60;;
77586;SDS011;66744;49.716;17.158;2023-07-22T09:55:25;6.13;;;1.80;;
77586;SDS011;66744;49.716;17.158;2023-07-22T09:58:36;5.45;;;1.88;;
77586;SDS011;66744;49.716;17.158;2023-07-22T10:01:46;2.95;;;1.65;;
77586;SDS011;66744;49.716;17.158;2023-07-22T10:05:03;3.40;;;1.63;;
77586;SDS011;66744;49.716;17.158;2023-07-22T10:08:23;2.05;;;1.65;;
77586;SDS011;66744;49.716;17.158;2023-07-22T10:11:26;3.63;;;1.75;;
77586;SDS011;66744;49.716;17.158;2023-07-22T10:14:29;2.25;;;1.73;;
77586;SDS011;66744;49.716;17.158;2023-07-22T10:17:43;2.80;;;1.60;;
77586;SDS011;66744;49.716;17.158;2023-07-22T10:20:49;1.73;;;1.30;;
77586;SDS011;66744;49.716;17.158;2023-07-22T10:23:52;3.30;;;2.08;;
77586;SDS011;66744;49.716;17.158;2023-07-22T10:26:56;6.45;;;1.75;;
77586;SDS011;66744;49.716;17.158;2023-07-22T10:30:07;8.07;;;1.95;;
77586;SDS011;66744;49.716;17.158;2023-07-22T10:33:32;3.53;;;1.60;;
77586;SDS011;66744;49.716;17.158;2023-07-22T10:36:35;3.28;;;1.75;;
77586;SDS011;66744;49.716;17.158;2023-07-22T10:39:39;5.00;;;1.63;;
77586;SDS011;66744;49.716;17.158;2023-07-22T10:42:41;4.55;;;1.70;;
77586;SDS011;66744;49.716;17.158;2023-07-22T10:45:42;2.83;;;1.70;;
77586;SDS011;66744;49.716;17.158;2023-07-22T10:48:59;2.50;;;1.60;;
77586;SDS011;66744;49.716;17.158;2023-07-22T10:52:11;4.90;;;2.15;;
77586;SDS011;66744;49.716;17.158;2023-07-22T10:55:17;3.08;;;2.05;;
77586;SDS011;66744;49.716;17.158;2023-07-22T10:58:22;3.38;;;1.98;;
77586;SDS011;66744;49.716;17.158;2023-07-22T11:04:29;2.20;;;1.58;;
77586;SDS011;66744;49.716;17.158;2023-07-22T11:07:34;2.58;;;1.90;;
77586;SDS011;66744;49.716;17.158;2023-07-22T11:10:52;3.67;;;2.05;;
77586;SDS011;66744;49.716;17.158;2023-07-22T11:17:31;3.72;;;1.88;;
77586;SDS011;66744;49.716;17.158;2023-07-22T11:20:33;1.83;;;1.42;;
77586;SDS011;66744;49.716;17.158;2023-07-22T11:23:38;2.70;;;1.65;;
77586;SDS011;66744;49.716;17.158;2023-07-22T11:30:15;3.70;;;1.73;;
77586;SDS011;66744;49.716;17.158;2023-07-22T11:33:24;2.63;;;1.48;;
77586;SDS011;66744;49.716;17.158;2023-07-22T11:36:29;2.22;;;1.70;;
77586;SDS011;66744;49.716;17.158;2023-07-22T11:39:31;4.05;;;1.90;;
77586;SDS011;66744;49.716;17.158;2023-07-22T11:42:39;5.22;;;1.98;;
77586;SDS011;66744;49.716;17.158;2023-07-22T11:49:50;5.63;;;1.90;;
77586;SDS011;66744;49.716;17.158;2023-07-22T11:52:59;3.88;;;1.58;;
77586;SDS011;66744;49.716;17.158;2023-07-22T11:56:01;3.08;;;1.75;;
77586;SDS011;66744;49.716;17.158;2023-07-22T11:59:04;2.00;;;1.60;;
77586;SDS011;66744;49.716;17.158;2023-07-22T12:02:15;4.40;;;1.63;;
77586;SDS011;66744;49.716;17.158;2023-07-22T12:05:25;2.72;;;1.92;;
77586;SDS011;66744;49.716;17.158;2023-07-22T12:08:33;3.03;;;1.70;;
77586;SDS011;66744;49.716;17.158;2023-07-22T12:11:37;3.13;;;1.80;;
77586;SDS011;66744;49.716;17.158;2023-07-22T12:14:50;2.70;;;1.80;;
77586;SDS011;66744;49.716;17.158;2023-07-22T12:17:55;3.65;;;1.60;;
77586;SDS011;66744;49.716;17.158;2023-07-22T12:21:00;3.85;;;1.80;;
77586;SDS011;66744;49.716;17.158;2023-07-22T12:24:22;3.05;;;1.90;;
77586;SDS011;66744;49.716;17.158;2023-07-22T12:27:25;2.40;;;1.85;;
77586;SDS011;66744;49.716;17.158;2023-07-22T12:30:42;3.08;;;1.42;;
77586;SDS011;66744;49.716;17.158;2023-07-22T12:33:47;2.17;;;1.85;;
77586;SDS011;66744;49.716;17.158;2023-07-22T12:36:51;3.13;;;2.53;;
77586;SDS011;66744;49.716;17.158;2023-07-22T12:39:56;2.72;;;1.92;;
77586;SDS011;66744;49.716;17.158;2023-07-22T12:43:03;2.95;;;1.63;;
77586;SDS011;66744;49.716;17.158;2023-07-22T12:46:09;4.07;;;1.75;;
77586;SDS011;66744;49.716;17.158;2023-07-22T12:49:11;4.15;;;1.95;;
77586;SDS011;66744;49.716;17.158;2023-07-22T12:52:14;3.60;;;2.25;;
77586;SDS011;66744;49.716;17.158;2023-07-22T12:55:16;2.80;;;1.65;;
77586;SDS011;66744;49.716;17.158;2023-07-22T12:58:18;2.90;;;2.20;;
77586;SDS011;66744;49.716;17.158;2023-07-22T13:01:27;4.53;;;1.83;;
77586;SDS011;66744;49.716;17.158;2023-07-22T13:04:44;2.95;;;1.90;;
77586;SDS011;66744;49.716;17.158;2023-07-22T13:10:59;2.75;;;1.85;;
77586;SDS011;66744;49.716;17.158;2023-07-22T13:14:01;3.35;;;1.75;;
77586;SDS011;66744;49.716;17.158;2023-07-22T13:17:13;1.95;;;1.70;;
77586;SDS011;66744;49.716;17.158;2023-07-22T13:20:15;2.85;;;1.52;;
77586;SDS011;66744;49.716;17.158;2023-07-22T13:23:17;2.38;;;1.70;;
77586;SDS011;66744;49.716;17.158;2023-07-22T13:26:20;2.83;;;1.63;;
77586;SDS011;66744;49.716;17.158;2023-07-22T13:29:21;2.80;;;1.90;;
77586;SDS011;66744;49.716;17.158;2023-07-22T13:32:24;3.95;;;1.92;;
77586;SDS011;66744;49.716;17.158;2023-07-22T13:35:44;2.53;;;1.80;;
77586;SDS011;66744;49.716;17.158;2023-07-22T13:38:46;3.72;;;1.63;;
77586;SDS011;66744;49.716;17.158;2023-07-22T13:41:50;3.03;;;1.83;;
77586;SDS011;66744;49.716;17.158;2023-07-22T13:44:52;3.05;;;1.83;;
77586;SDS011;66744;49.716;17.158;2023-07-22T13:47:54;2.10;;;1.65;;
77586;SDS011;66744;49.716;17.158;2023-07-22T13:50:55;2.28;;;1.67;;
77586;SDS011;66744;49.716;17.158;2023-07-22T13:53:56;2.72;;;1.75;;
77586;SDS011;66744;49.716;17.158;2023-07-22T13:56:59;2.38;;;1.73;;
77586;SDS011;66744;49.716;17.158;2023-07-22T14:00:01;3.35;;;1.95;;
77586;SDS011;66744;49.716;17.158;2023-07-22T14:03:13;2.40;;;1.73;;
77586;SDS011;66744;49.716;17.158;2023-07-22T14:06:15;2.92;;;2.10;;
77586;SDS011;66744;49.716;17.158;2023-07-22T14:09:16;3.05;;;1.70;;
77586;SDS011;66744;49.716;17.158;2023-07-22T14:12:18;3.22;;;2.00;;
77586;SDS011;66744;49.716;17.158;2023-07-22T14:15:19;2.75;;;1.83;;
77586;SDS011;66744;49.716;17.158;2023-07-22T14:18:21;2.90;;;1.85;;
77586;SDS011;66744;49.716;17.158;2023-07-22T14:21:22;2.83;;;1.73;;
77586;SDS011;66744;49.716;17.158;2023-07-22T14:24:24;3.05;;;1.77;;
77586;SDS011;66744;49.716;17.158;2023-07-22T14:27:25;3.05;;;2.20;;
77586;SDS011;66744;49.716;17.158;2023-07-22T14:30:26;2.05;;;1.65;;
77586;SDS011;66744;49.716;17.158;2023-07-22T14:33:30;2.75;;;1.80;;
77586;SDS011;66744;49.716;17.158;2023-07-22T14:36:31;2.83;;;1.92;;
77586;SDS011;66744;49.716;17.158;2023-07-22T14:39:33;2.15;;;1.83;;
77586;SDS011;66744;49.716;17.158;2023-07-22T14:42:34;2.13;;;1.73;;
77586;SDS011;66744;49.716;17.158;2023-07-22T14:45:36;2.83;;;1.50;;
77586;SDS011;66744;49.716;17.158;2023-07-22T14:48:37;2.50;;;1.83;;
77586;SDS011;66744;49.716;17.158;2023-07-22T14:51:38;3.92;;;2.13;;
77586;SDS011;66744;49.716;17.158;2023-07-22T14:54:40;4.35;;;1.73;;
77586;SDS011;66744;49.716;17.158;2023-07-22T14:57:44;2.80;;;1.92;;
77586;SDS011;66744;49.716;17.158;2023-07-22T15:00:47;2.90;;;1.70;;
77586;SDS011;66744;49.716;17.158;2023-07-22T15:03:49;2.55;;;2.05;;
77586;SDS011;66744;49.716;17.158;2023-07-22T15:06:50;3.42;;;2.35;;
77586;SDS011;66744;49.716;17.158;2023-07-22T15:09:51;2.80;;;2.03;;
77586;SDS011;66744;49.716;17.158;2023-07-22T15:12:54;2.60;;;1.83;;
77586;SDS011;66744;49.716;17.158;2023-07-22T15:15:59;3.33;;;2.25;;
77586;SDS011;66744;49.716;17.158;2023-07-22T15:19:03;3.88;;;2.35;;
77586;SDS011;66744;49.716;17.158;2023-07-22T15:22:04;3.92;;;2.03;;
77586;SDS011;66744;49.716;17.158;2023-07-22T15:25:06;2.80;;;2.00;;
77586;SDS011;66744;49.716;17.158;2023-07-22T15:28:08;6.38;;;2.00;;
77586;SDS011;66744;49.716;17.158;2023-07-22T15:31:11;2.13;;;1.83;;
77586;SDS011;66744;49.716;17.158;2023-07-22T15:37:17;3.67;;;2.28;;
77586;SDS011;66744;49.716;17.158;2023-07-22T15:40:18;2.10;;;1.90;;
77586;SDS011;66744;49.716;17.158;2023-07-22T15:43:20;5.35;;;2.50;;
77586;SDS011;66744;49.716;17.158;2023-07-22T15:46:23;2.75;;;1.88;;
77586;SDS011;66744;49.716;17.158;2023-07-22T15:49:25;2.83;;;2.05;;
77586;SDS011;66744;49.716;17.158;2023-07-22T15:52:26;3.70;;;2.00;;
77586;SDS011;66744;49.716;17.158;2023-07-22T15:55:30;3.20;;;2.10;;
77586;SDS011;66744;49.716;17.158;2023-07-22T15:58:35;3.25;;;2.17;;
77586;SDS011;66744;49.716;17.158;2023-07-22T16:01:36;3.13;;;1.70;;
77586;SDS011;66744;49.716;17.158;2023-07-22T16:04:38;4.05;;;2.40;;
77586;SDS011;66744;49.716;17.158;2023-07-22T16:07:42;2.67;;;1.92;;
77586;SDS011;66744;49.716;17.158;2023-07-22T16:10:47;3.30;;;2.03;;
77586;SDS011;66744;49.716;17.158;2023-07-22T16:13:48;3.25;;;2.13;;
77586;SDS011;66744;49.716;17.158;2023-07-22T16:16:50;3.65;;;2.45;;
77586;SDS011;66744;49.716;17.158;2023-07-22T16:19:51;3.75;;;2.42;;
77586;SDS011;66744;49.716;17.158;2023-07-22T16:22:53;2.83;;;2.20;;
77586;SDS011;66744;49.716;17.158;2023-07-22T16:25:54;2.13;;;1.73;;
77586;SDS011;66744;49.716;17.158;2023-07-22T16:28:55;3.30;;;1.80;;
77586;SDS011;66744;49.716;17.158;2023-07-22T16:31:57;5.63;;;2.60;;
77586;SDS011;66744;49.716;17.158;2023-07-22T16:34:58;3.08;;;1.95;;
77586;SDS011;66744;49.716;17.158;2023-07-22T16:37:59;4.47;;;2.35;;
77586;SDS011;66744;49.716;17.158;2023-07-22T16:41:00;4.03;;;2.30;;
77586;SDS011;66744;49.716;17.158;2023-07-22T16:44:02;4.57;;;2.15;;
77586;SDS011;66744;49.716;17.158;2023-07-22T16:47:04;5.40;;;2.35;;
77586;SDS011;66744;49.716;17.158;2023-07-22T16:50:11;4.90;;;2.03;;
77586;SDS011;66744;49.716;17.158;2023-07-22T16:53:17;2.95;;;2.05;;
77586;SDS011;66744;49.716;17.158;2023-07-22T16:56:21;3.97;;;2.55;;
77586;SDS011;66744;49.716;17.158;2023-07-22T16:59:22;2.88;;;1.90;;
77586;SDS011;66744;49.716;17.158;2023-07-22T17:02:24;3.10;;;2.58;;
77586;SDS011;66744;49.716;17.158;2023-07-22T17:05:29;4.25;;;2.45;;
77586;SDS011;66744;49.716;17.158;2023-07-22T17:08:30;4.35;;;2.15;;
77586;SDS011;66744;49.716;17.158;2023-07-22T17:11:32;3.22;;;2.75;;
77586;SDS011;66744;49.716;17.158;2023-07-22T17:14:33;3.35;;;2.50;;
77586;SDS011;66744;49.716;17.158;2023-07-22T17:17:35;4.05;;;2.90;;
77586;SDS011;66744;49.716;17.158;2023-07-22T17:20:36;3.75;;;2.28;;
77586;SDS011;66744;49.716;17.158;2023-07-22T17:23:38;4.95;;;2.58;;
77586;SDS011;66744;49.716;17.158;2023-07-22T17:26:40;3.17;;;1.83;;
77586;SDS011;66744;49.716;17.158;2023-07-22T17:29:42;4.78;;;2.22;;
77586;SDS011;66744;49.716;17.158;2023-07-22T17:32:43;5.05;;;2.40;;
77586;SDS011;66744;49.716;17.158;2023-07-22T17:35:54;3.97;;;2.13;;
77586;SDS011;66744;49.716;17.158;2023-07-22T17:39:02;4.63;;;2.30;;
77586;SDS011;66744;49.716;17.158;2023-07-22T17:42:04;4.75;;;2.03;;
77586;SDS011;66744;49.716;17.158;2023-07-22T17:45:08;3.47;;;2.10;;
77586;SDS011;66744;49.716;17.158;2023-07-22T17:48:11;4.45;;;2.28;;
77586;SDS011;66744;49.716;17.158;2023-07-22T17:51:17;4.70;;;2.38;;
77586;SDS011;66744;49.716;17.158;2023-07-22T17:54:20;3.45;;;2.10;;
77586;SDS011;66744;49.716;17.158;2023-07-22T17:57:42;4.53;;;2.53;;
77586;SDS011;66744;49.716;17.158;2023-07-22T18:00:49;3.95;;;2.17;;
77586;SDS011;66744;49.716;17.158;2023-07-22T18:03:55;3.92;;;2.00;;
77586;SDS011;66744;49.716;17.158;2023-07-22T18:06:59;4.68;;;2.45;;
77586;SDS011;66744;49.716;17.158;2023-07-22T18:10:04;5.93;;;2.15;;
77586;SDS011;66744;49.716;17.158;2023-07-22T18:13:05;5.35;;;2.33;;
77586;SDS011;66744;49.716;17.158;2023-07-22T18:16:07;3.47;;;2.38;;
77586;SDS011;66744;49.716;17.158;2023-07-22T18:19:09;3.47;;;2.47;;
77586;SDS011;66744;49.716;17.158;2023-07-22T18:22:11;4.85;;;2.80;;
77586;SDS011;66744;49.716;17.158;2023-07-22T18:25:15;3.20;;;2.28;;
77586;SDS011;66744;49.716;17.158;2023-07-22T18:28:16;3.58;;;2.60;;
77586;SDS011;66744;49.716;17.158;2023-07-22T18:31:18;7.30;;;2.35;;
77586;SDS011;66744;49.716;17.158;2023-07-22T18:34:21;2.97;;;2.15;;
77586;SDS011;66744;49.716;17.158;2023-07-22T18:37:24;3.15;;;2.22;;
77586;SDS011;66744;49.716;17.158;2023-07-22T18:40:28;14.13;;;9.35;;
77586;SDS011;66744;49.716;17.158;2023-07-22T18:43:29;6.25;;;4.57;;
77586;SDS011;66744;49.716;17.158;2023-07-22T18:46:47;3.05;;;2.50;;
77586;SDS011;66744;49.716;17.158;2023-07-22T18:49:48;5.72;;;2.83;;
77586;SDS011;66744;49.716;17.158;2023-07-22T18:52:50;5.18;;;3.17;;
77586;SDS011;66744;49.716;17.158;2023-07-22T18:55:52;3.80;;;2.58;;
77586;SDS011;66744;49.716;17.158;2023-07-22T18:58:58;3.33;;;2.50;;
77586;SDS011;66744;49.716;17.158;2023-07-22T19:02:01;3.08;;;2.10;;
77586;SDS011;66744;49.716;17.158;2023-07-22T19:05:04;3.28;;;2.28;;
77586;SDS011;66744;49.716;17.158;2023-07-22T19:08:26;3.88;;;2.85;;
77586;SDS011;66744;49.716;17.158;2023-07-22T19:11:33;2.38;;;1.95;;
77586;SDS011;66744;49.716;17.158;2023-07-22T19:14:35;3.30;;;2.60;;
77586;SDS011;66744;49.716;17.158;2023-07-22T19:17:38;5.43;;;3.33;;
77586;SDS011;66744;49.716;17.158;2023-07-22T19:20:43;9.63;;;6.32;;
77586;SDS011;66744;49.716;17.158;2023-07-22T19:23:52;9.18;;;5.18;;
77586;SDS011;66744;49.716;17.158;2023-07-22T19:26:56;7.18;;;4.15;;
77586;SDS011;66744;49.716;17.158;2023-07-22T19:29:58;5.30;;;2.65;;
77586;SDS011;66744;49.716;17.158;2023-07-22T19:33:15;5.45;;;3.13;;
77586;SDS011;66744;49.716;17.158;2023-07-22T19:36:19;4.70;;;3.42;;